sensor_id;sensor_type;location;lat;lon;timestamp;P1;durP1;ratioP1;P2;durP2;ratioP2
62535;SDS011;63050;47.514;18.920;2023-07-31T00:00:32;3.90;;;2.80;;
62535;SDS011;63050;47.514;18.920;2023-07-31T00:05:32;3.10;;;2.40;;
62535;SDS011;63050;47.514;18.920;2023-07-31T00:10:33;3.00;;;1.90;;
62535;SDS011;63050;47.514;18.920;2023-07-31T00:15:34;2.80;;;1.90;;
62535;SDS011;63050;47.514;18.920;2023-07-31T00:20:35;4.80;;;2.30;;
62535;SDS011;63050;47.514;18.920;2023-07-31T00:25:36;3.40;;;2.40;;
62535;SDS011;63050;47.514;18.920;2023-07-31T00:30:37;3.10;;;2.10;;
62535;SDS011;63050;47.514;18.920;2023-07-31T00:35:38;4.50;;;2.30;;
62535;SDS011;63050;47.514;18.920;2023-07-31T00:40:39;4.00;;;2.60;;
62535;SDS011;63050;47.514;18.920;2023-07-31T00:45:40;2.70;;;2.10;;
62535;SDS011;63050;47.514;18.920;2023-07-31T00:50:41;3.70;;;2.70;;
62535;SDS011;63050;47.514;18.920;2023-07-31T00:55:42;4.90;;;2.70;;
62535;SDS011;63050;47.514;18.920;2023-07-31T01:00:43;4.00;;;2.70;;
62535;SDS011;63050;47.514;18.920;2023-07-31T01:11:18;3.50;;;2.10;;
62535;SDS011;63050;47.514;18.920;2023-07-31T01:16:23;3.30;;;2.40;;
62535;SDS011;63050;47.514;18.920;2023-07-31T01:21:41;2.50;;;1.80;;
62535;SDS011;63050;47.514;18.920;2023-07-31T01:27:06;4.90;;;2.50;;
62535;SDS011;63050;47.514;18.920;2023-07-31T01:32:10;4.10;;;2.50;;
62535;SDS011;63050;47.514;18.920;2023-07-31T01:37:12;3.50;;;2.50;;
62535;SDS011;63050;47.514;18.920;2023-07-31T01:42:13;6.20;;;2.30;;
62535;SDS011;63050;47.514;18.920;2023-07-31T01:47:17;3.10;;;1.90;;
62535;SDS011;63050;47.514;18.920;2023-07-31T01:52:17;2.90;;;1.70;;
62535;SDS011;63050;47.514;18.920;2023-07-31T01:57:18;2.50;;;1.80;;
62535;SDS011;63050;47.514;18.920;2023-07-31T02:02:19;2.60;;;1.70;;
62535;SDS011;63050;47.514;18.920;2023-07-31T02:07:20;2.30;;;1.40;;
62535;SDS011;63050;47.514;18.920;2023-07-31T02:12:21;2.90;;;1.70;;
62535;SDS011;63050;47.514;18.920;2023-07-31T02:17:22;3.90;;;1.90;;
62535;SDS011;63050;47.514;18.920;2023-07-31T02:22:23;2.70;;;1.80;;
62535;SDS011;63050;47.514;18.920;2023-07-31T02:27:23;2.10;;;1.30;;
62535;SDS011;63050;47.514;18.920;2023-07-31T02:32:27;3.70;;;1.90;;
62535;SDS011;63050;47.514;18.920;2023-07-31T02:37:28;3.40;;;2.00;;
62535;SDS011;63050;47.514;18.920;2023-07-31T02:42:29;2.90;;;1.70;;
62535;SDS011;63050;47.514;18.920;2023-07-31T02:47:30;2.30;;;1.60;;
62535;SDS011;63050;47.514;18.920;2023-07-31T02:52:31;3.00;;;1.90;;
62535;SDS011;63050;47.514;18.920;2023-07-31T02:57:32;4.40;;;1.80;;
62535;SDS011;63050;47.514;18.920;2023-07-31T03:02:32;3.30;;;1.80;;
62535;SDS011;63050;47.514;18.920;2023-07-31T03:07:33;2.90;;;1.80;;
62535;SDS011;63050;47.514;18.920;2023-07-31T03:12:34;4.10;;;1.70;;
62535;SDS011;63050;47.514;18.920;2023-07-31T03:17:35;3.80;;;1.90;;
62535;SDS011;63050;47.514;18.920;2023-07-31T03:22:36;3.80;;;2.10;;
62535;SDS011;63050;47.514;18.920;2023-07-31T03:27:38;2.00;;;1.60;;
62535;SDS011;63050;47.514;18.920;2023-07-31T03:32:39;3.20;;;1.50;;
62535;SDS011;63050;47.514;18.920;2023-07-31T03:37:40;3.60;;;1.80;;
62535;SDS011;63050;47.514;18.920;2023-07-31T03:42:41;2.50;;;1.50;;
62535;SDS011;63050;47.514;18.920;2023-07-31T03:47:42;4.90;;;1.70;;
62535;SDS011;63050;47.514;18.920;2023-07-31T03:52:43;4.40;;;1.90;;
62535;SDS011;63050;47.514;18.920;2023-07-31T03:57:44;2.50;;;1.70;;
62535;SDS011;63050;47.514;18.920;2023-07-31T04:02:44;3.10;;;1.40;;
62535;SDS011;63050;47.514;18.920;2023-07-31T04:07:45;2.20;;;1.50;;
62535;SDS011;63050;47.514;18.920;2023-07-31T04:12:46;2.40;;;1.50;;
62535;SDS011;63050;47.514;18.920;2023-07-31T04:17:46;3.50;;;1.30;;
62535;SDS011;63050;47.514;18.920;2023-07-31T04:22:47;4.80;;;1.90;;
62535;SDS011;63050;47.514;18.920;2023-07-31T04:27:49;2.80;;;1.70;;
62535;SDS011;63050;47.514;18.920;2023-07-31T04:32:50;2.70;;;1.50;;
62535;SDS011;63050;47.514;18.920;2023-07-31T04:37:50;5.40;;;1.70;;
62535;SDS011;63050;47.514;18.920;2023-07-31T04:42:51;2.10;;;1.10;;
62535;SDS011;63050;47.514;18.920;2023-07-31T04:47:52;5.40;;;1.50;;
62535;SDS011;63050;47.514;18.920;2023-07-31T04:52:52;3.10;;;1.30;;
62535;SDS011;63050;47.514;18.920;2023-07-31T04:57:53;4.80;;;1.90;;
62535;SDS011;63050;47.514;18.920;2023-07-31T05:02:54;3.00;;;1.50;;
62535;SDS011;63050;47.514;18.920;2023-07-31T05:07:55;3.30;;;1.30;;
62535;SDS011;63050;47.514;18.920;2023-07-31T05:12:56;3.80;;;1.70;;
62535;SDS011;63050;47.514;18.920;2023-07-31T05:17:57;2.80;;;1.50;;
62535;SDS011;63050;47.514;18.920;2023-07-31T05:22:59;3.60;;;1.40;;
62535;SDS011;63050;47.514;18.920;2023-07-31T05:27:59;2.90;;;1.30;;
62535;SDS011;63050;47.514;18.920;2023-07-31T05:33:00;5.40;;;1.70;;
62535;SDS011;63050;47.514;18.920;2023-07-31T05:38:01;3.80;;;1.50;;
62535;SDS011;63050;47.514;18.920;2023-07-31T05:43:02;3.40;;;1.40;;
62535;SDS011;63050;47.514;18.920;2023-07-31T05:48:03;4.00;;;2.00;;
62535;SDS011;63050;47.514;18.920;2023-07-31T05:53:04;3.30;;;1.60;;
62535;SDS011;63050;47.514;18.920;2023-07-31T05:58:05;2.90;;;1.50;;
62535;SDS011;63050;47.514;18.920;2023-07-31T06:03:06;2.00;;;1.10;;
62535;SDS011;63050;47.514;18.920;2023-07-31T06:08:07;2.20;;;1.10;;
62535;SDS011;63050;47.514;18.920;2023-07-31T06:13:08;8.60;;;1.60;;
62535;SDS011;63050;47.514;18.920;2023-07-31T06:18:09;9.40;;;1.50;;
62535;SDS011;63050;47.514;18.920;2023-07-31T06:23:10;5.00;;;1.40;;
62535;SDS011;63050;47.514;18.920;2023-07-31T06:28:11;3.40;;;1.50;;
62535;SDS011;63050;47.514;18.920;2023-07-31T06:33:12;1.60;;;1.00;;
62535;SDS011;63050;47.514;18.920;2023-07-31T06:38:13;3.20;;;1.40;;
62535;SDS011;63050;47.514;18.920;2023-07-31T06:43:14;2.90;;;1.10;;
62535;SDS011;63050;47.514;18.920;2023-07-31T06:48:15;5.20;;;1.40;;
62535;SDS011;63050;47.514;18.920;2023-07-31T06:53:16;2.20;;;1.20;;
62535;SDS011;63050;47.514;18.920;2023-07-31T06:58:17;2.00;;;1.30;;
62535;SDS011;63050;47.514;18.920;2023-07-31T07:03:18;2.00;;;1.00;;
62535;SDS011;63050;47.514;18.920;2023-07-31T07:08:19;1.80;;;1.30;;
62535;SDS011;63050;47.514;18.920;2023-07-31T07:13:21;4.30;;;1.30;;
62535;SDS011;63050;47.514;18.920;2023-07-31T07:18:22;2.70;;;1.20;;
62535;SDS011;63050;47.514;18.920;2023-07-31T07:23:23;4.30;;;2.20;;
62535;SDS011;63050;47.514;18.920;2023-07-31T07:28:24;2.10;;;1.30;;
62535;SDS011;63050;47.514;18.920;2023-07-31T07:33:25;3.40;;;1.30;;
62535;SDS011;63050;47.514;18.920;2023-07-31T07:38:26;3.20;;;1.20;;
62535;SDS011;63050;47.514;18.920;2023-07-31T07:43:29;3.30;;;1.30;;
62535;SDS011;63050;47.514;18.920;2023-07-31T07:48:29;2.50;;;1.10;;
62535;SDS011;63050;47.514;18.920;2023-07-31T07:53:30;3.60;;;0.90;;
62535;SDS011;63050;47.514;18.920;2023-07-31T07:58:50;2.30;;;1.70;;
62535;SDS011;63050;47.514;18.920;2023-07-31T08:03:50;4.60;;;1.30;;
62535;SDS011;63050;47.514;18.920;2023-07-31T08:08:51;5.40;;;1.40;;
62535;SDS011;63050;47.514;18.920;2023-07-31T08:13:52;2.50;;;1.00;;
62535;SDS011;63050;47.514;18.920;2023-07-31T08:18:53;3.70;;;1.20;;
62535;SDS011;63050;47.514;18.920;2023-07-31T08:23:54;5.40;;;1.20;;
62535;SDS011;63050;47.514;18.920;2023-07-31T08:28:55;8.20;;;1.20;;
62535;SDS011;63050;47.514;18.920;2023-07-31T08:33:57;2.80;;;1.30;;
62535;SDS011;63050;47.514;18.920;2023-07-31T08:38:58;4.60;;;1.70;;
62535;SDS011;63050;47.514;18.920;2023-07-31T08:43:59;3.70;;;1.30;;
62535;SDS011;63050;47.514;18.920;2023-07-31T08:49:00;3.30;;;1.20;;
62535;SDS011;63050;47.514;18.920;2023-07-31T08:54:05;3.30;;;1.50;;
62535;SDS011;63050;47.514;18.920;2023-07-31T08:59:06;3.80;;;1.30;;
62535;SDS011;63050;47.514;18.920;2023-07-31T09:04:07;3.00;;;1.10;;
62535;SDS011;63050;47.514;18.920;2023-07-31T09:09:08;3.10;;;1.40;;
62535;SDS011;63050;47.514;18.920;2023-07-31T09:14:09;4.50;;;1.30;;
62535;SDS011;63050;47.514;18.920;2023-07-31T09:19:10;2.40;;;1.00;;
62535;SDS011;63050;47.514;18.920;2023-07-31T09:24:12;4.60;;;1.50;;
62535;SDS011;63050;47.514;18.920;2023-07-31T09:29:27;3.20;;;1.10;;
62535;SDS011;63050;47.514;18.920;2023-07-31T09:34:31;3.00;;;1.20;;
62535;SDS011;63050;47.514;18.920;2023-07-31T09:39:45;3.30;;;1.20;;
62535;SDS011;63050;47.514;18.920;2023-07-31T09:44:47;6.60;;;1.60;;
62535;SDS011;63050;47.514;18.920;2023-07-31T09:49:48;4.10;;;1.30;;
62535;SDS011;63050;47.514;18.920;2023-07-31T09:54:49;3.40;;;1.50;;
62535;SDS011;63050;47.514;18.920;2023-07-31T09:59:50;1.50;;;1.10;;
62535;SDS011;63050;47.514;18.920;2023-07-31T10:04:53;3.60;;;1.00;;
62535;SDS011;63050;47.514;18.920;2023-07-31T10:09:59;5.20;;;1.50;;
62535;SDS011;63050;47.514;18.920;2023-07-31T10:15:01;3.90;;;1.10;;
62535;SDS011;63050;47.514;18.920;2023-07-31T10:20:02;1.80;;;0.90;;
62535;SDS011;63050;47.514;18.920;2023-07-31T10:25:07;4.00;;;1.30;;
62535;SDS011;63050;47.514;18.920;2023-07-31T10:30:11;3.00;;;0.90;;
62535;SDS011;63050;47.514;18.920;2023-07-31T10:35:12;2.40;;;1.10;;
62535;SDS011;63050;47.514;18.920;2023-07-31T10:45:31;3.70;;;1.60;;
62535;SDS011;63050;47.514;18.920;2023-07-31T10:50:38;2.90;;;1.00;;
62535;SDS011;63050;47.514;18.920;2023-07-31T10:55:40;3.60;;;1.20;;
62535;SDS011;63050;47.514;18.920;2023-07-31T11:00:41;1.70;;;0.80;;
62535;SDS011;63050;47.514;18.920;2023-07-31T11:05:47;3.20;;;1.10;;
62535;SDS011;63050;47.514;18.920;2023-07-31T11:16:03;1.80;;;1.00;;
62535;SDS011;63050;47.514;18.920;2023-07-31T11:21:04;2.50;;;0.90;;
62535;SDS011;63050;47.514;18.920;2023-07-31T11:26:05;4.50;;;1.20;;
62535;SDS011;63050;47.514;18.920;2023-07-31T11:31:08;4.70;;;1.20;;
62535;SDS011;63050;47.514;18.920;2023-07-31T11:36:19;3.80;;;1.10;;
62535;SDS011;63050;47.514;18.920;2023-07-31T11:41:20;3.10;;;1.20;;
62535;SDS011;63050;47.514;18.920;2023-07-31T11:46:21;3.30;;;1.70;;
62535;SDS011;63050;47.514;18.920;2023-07-31T11:51:22;4.80;;;1.10;;
62535;SDS011;63050;47.514;18.920;2023-07-31T11:56:23;2.70;;;1.10;;
62535;SDS011;63050;47.514;18.920;2023-07-31T12:01:24;3.40;;;1.10;;
62535;SDS011;63050;47.514;18.920;2023-07-31T12:06:34;2.90;;;1.20;;
62535;SDS011;63050;47.514;18.920;2023-07-31T12:11:42;4.50;;;1.10;;
62535;SDS011;63050;47.514;18.920;2023-07-31T12:16:47;4.00;;;1.10;;
62535;SDS011;63050;47.514;18.920;2023-07-31T12:21:48;4.40;;;1.10;;
62535;SDS011;63050;47.514;18.920;2023-07-31T12:26:49;1.30;;;0.80;;
62535;SDS011;63050;47.514;18.920;2023-07-31T12:31:50;6.40;;;1.30;;
62535;SDS011;63050;47.514;18.920;2023-07-31T12:36:52;2.50;;;1.30;;
62535;SDS011;63050;47.514;18.920;2023-07-31T12:41:54;2.50;;;1.00;;
62535;SDS011;63050;47.514;18.920;2023-07-31T12:46:55;2.40;;;1.10;;
62535;SDS011;63050;47.514;18.920;2023-07-31T12:51:56;6.10;;;1.30;;
62535;SDS011;63050;47.514;18.920;2023-07-31T12:56:56;2.40;;;1.10;;
62535;SDS011;63050;47.514;18.920;2023-07-31T13:01:58;3.00;;;1.00;;
62535;SDS011;63050;47.514;18.920;2023-07-31T13:06:58;3.40;;;1.00;;
62535;SDS011;63050;47.514;18.920;2023-07-31T13:11:59;3.50;;;1.10;;
62535;SDS011;63050;47.514;18.920;2023-07-31T13:17:00;3.10;;;1.10;;
62535;SDS011;63050;47.514;18.920;2023-07-31T13:22:01;2.30;;;1.10;;
62535;SDS011;63050;47.514;18.920;2023-07-31T13:27:02;4.10;;;1.10;;
62535;SDS011;63050;47.514;18.920;2023-07-31T13:32:03;2.60;;;1.00;;
62535;SDS011;63050;47.514;18.920;2023-07-31T13:37:04;3.10;;;1.10;;
62535;SDS011;63050;47.514;18.920;2023-07-31T13:42:07;4.10;;;0.90;;
62535;SDS011;63050;47.514;18.920;2023-07-31T13:47:08;2.50;;;1.30;;
62535;SDS011;63050;47.514;18.920;2023-07-31T13:52:09;4.10;;;1.00;;
62535;SDS011;63050;47.514;18.920;2023-07-31T13:57:10;4.20;;;1.20;;
62535;SDS011;63050;47.514;18.920;2023-07-31T14:02:11;3.50;;;1.20;;
62535;SDS011;63050;47.514;18.920;2023-07-31T14:07:12;3.70;;;1.10;;
62535;SDS011;63050;47.514;18.920;2023-07-31T14:12:13;4.80;;;1.20;;
62535;SDS011;63050;47.514;18.920;2023-07-31T14:17:13;2.90;;;1.10;;
62535;SDS011;63050;47.514;18.920;2023-07-31T14:22:14;3.90;;;1.30;;
62535;SDS011;63050;47.514;18.920;2023-07-31T14:27:15;2.80;;;1.40;;
62535;SDS011;63050;47.514;18.920;2023-07-31T14:32:16;2.90;;;0.90;;
62535;SDS011;63050;47.514;18.920;2023-07-31T14:37:17;6.50;;;1.10;;
62535;SDS011;63050;47.514;18.920;2023-07-31T14:42:18;2.70;;;1.00;;
62535;SDS011;63050;47.514;18.920;2023-07-31T14:47:19;3.00;;;1.10;;
62535;SDS011;63050;47.514;18.920;2023-07-31T14:52:20;2.80;;;0.90;;
62535;SDS011;63050;47.514;18.920;2023-07-31T14:57:21;3.20;;;1.20;;
62535;SDS011;63050;47.514;18.920;2023-07-31T15:02:22;3.20;;;1.10;;
62535;SDS011;63050;47.514;18.920;2023-07-31T15:07:23;5.60;;;1.20;;
62535;SDS011;63050;47.514;18.920;2023-07-31T15:12:24;3.30;;;1.10;;
62535;SDS011;63050;47.514;18.920;2023-07-31T15:17:26;2.90;;;1.10;;
62535;SDS011;63050;47.514;18.920;2023-07-31T15:22:27;4.30;;;1.10;;
62535;SDS011;63050;47.514;18.920;2023-07-31T15:27:27;2.30;;;1.00;;
62535;SDS011;63050;47.514;18.920;2023-07-31T15:32:29;2.60;;;1.10;;
62535;SDS011;63050;47.514;18.920;2023-07-31T15:37:29;4.10;;;1.60;;
62535;SDS011;63050;47.514;18.920;2023-07-31T15:42:30;2.90;;;1.10;;
62535;SDS011;63050;47.514;18.920;2023-07-31T15:47:34;2.50;;;1.10;;
62535;SDS011;63050;47.514;18.920;2023-07-31T15:52:35;2.50;;;0.90;;
62535;SDS011;63050;47.514;18.920;2023-07-31T15:57:35;4.50;;;1.40;;
62535;SDS011;63050;47.514;18.920;2023-07-31T16:02:36;3.60;;;1.10;;
62535;SDS011;63050;47.514;18.920;2023-07-31T16:07:37;3.00;;;1.10;;
62535;SDS011;63050;47.514;18.920;2023-07-31T16:12:38;2.40;;;1.10;;
62535;SDS011;63050;47.514;18.920;2023-07-31T16:17:39;2.20;;;1.00;;
62535;SDS011;63050;47.514;18.920;2023-07-31T16:22:39;4.40;;;1.20;;
62535;SDS011;63050;47.514;18.920;2023-07-31T16:27:40;3.20;;;1.20;;
62535;SDS011;63050;47.514;18.920;2023-07-31T16:32:41;2.60;;;1.00;;
62535;SDS011;63050;47.514;18.920;2023-07-31T16:37:42;3.00;;;1.00;;
62535;SDS011;63050;47.514;18.920;2023-07-31T16:42:44;3.00;;;1.10;;
62535;SDS011;63050;47.514;18.920;2023-07-31T16:47:45;2.80;;;1.10;;
62535;SDS011;63050;47.514;18.920;2023-07-31T16:52:46;2.30;;;0.80;;
62535;SDS011;63050;47.514;18.920;2023-07-31T16:57:46;5.00;;;1.30;;
62535;SDS011;63050;47.514;18.920;2023-07-31T17:02:47;2.90;;;1.20;;
62535;SDS011;63050;47.514;18.920;2023-07-31T17:07:48;4.30;;;1.00;;
62535;SDS011;63050;47.514;18.920;2023-07-31T17:12:49;4.30;;;1.00;;
62535;SDS011;63050;47.514;18.920;2023-07-31T17:17:52;2.00;;;1.10;;
62535;SDS011;63050;47.514;18.920;2023-07-31T17:22:54;3.20;;;1.30;;
62535;SDS011;63050;47.514;18.920;2023-07-31T17:27:55;4.20;;;1.00;;
62535;SDS011;63050;47.514;18.920;2023-07-31T17:32:57;3.30;;;1.10;;
62535;SDS011;63050;47.514;18.920;2023-07-31T17:37:58;2.40;;;1.20;;
62535;SDS011;63050;47.514;18.920;2023-07-31T17:42:59;5.00;;;1.20;;
62535;SDS011;63050;47.514;18.920;2023-07-31T17:48:02;3.50;;;1.20;;
62535;SDS011;63050;47.514;18.920;2023-07-31T17:53:03;2.70;;;1.10;;
62535;SDS011;63050;47.514;18.920;2023-07-31T17:58:05;3.10;;;1.00;;
62535;SDS011;63050;47.514;18.920;2023-07-31T18:03:08;4.70;;;1.20;;
62535;SDS011;63050;47.514;18.920;2023-07-31T18:08:12;3.50;;;1.10;;
62535;SDS011;63050;47.514;18.920;2023-07-31T18:13:14;3.70;;;1.20;;
62535;SDS011;63050;47.514;18.920;2023-07-31T18:18:15;3.00;;;1.20;;
62535;SDS011;63050;47.514;18.920;2023-07-31T18:23:16;3.20;;;1.00;;
62535;SDS011;63050;47.514;18.920;2023-07-31T18:28:17;2.30;;;1.00;;
62535;SDS011;63050;47.514;18.920;2023-07-31T18:33:19;5.10;;;1.50;;
62535;SDS011;63050;47.514;18.920;2023-07-31T18:38:21;3.30;;;1.50;;
62535;SDS011;63050;47.514;18.920;2023-07-31T18:43:23;2.90;;;1.20;;
62535;SDS011;63050;47.514;18.920;2023-07-31T18:48:24;4.20;;;1.30;;
62535;SDS011;63050;47.514;18.920;2023-07-31T18:53:25;2.30;;;1.20;;
62535;SDS011;63050;47.514;18.920;2023-07-31T18:58:26;5.50;;;1.50;;
62535;SDS011;63050;47.514;18.920;2023-07-31T19:03:28;2.90;;;1.20;;
62535;SDS011;63050;47.514;18.920;2023-07-31T19:08:30;2.70;;;1.10;;
62535;SDS011;63050;47.514;18.920;2023-07-31T19:13:31;2.30;;;1.00;;
62535;SDS011;63050;47.514;18.920;2023-07-31T19:18:34;3.40;;;1.20;;
62535;SDS011;63050;47.514;18.920;2023-07-31T19:23:35;1.90;;;1.10;;
62535;SDS011;63050;47.514;18.920;2023-07-31T19:28:36;4.10;;;1.30;;
62535;SDS011;63050;47.514;18.920;2023-07-31T19:33:38;5.10;;;1.90;;
62535;SDS011;63050;47.514;18.920;2023-07-31T19:38:39;3.00;;;1.20;;
62535;SDS011;63050;47.514;18.920;2023-07-31T19:43:41;3.80;;;1.80;;
62535;SDS011;63050;47.514;18.920;2023-07-31T19:48:43;4.60;;;1.60;;
62535;SDS011;63050;47.514;18.920;2023-07-31T19:53:44;1.90;;;1.20;;
62535;SDS011;63050;47.514;18.920;2023-07-31T19:58:45;4.50;;;1.30;;
62535;SDS011;63050;47.514;18.920;2023-07-31T20:03:47;3.60;;;1.30;;
62535;SDS011;63050;47.514;18.920;2023-07-31T20:08:50;4.60;;;1.40;;
62535;SDS011;63050;47.514;18.920;2023-07-31T20:13:51;7.60;;;1.60;;
62535;SDS011;63050;47.514;18.920;2023-07-31T20:18:53;2.40;;;1.10;;
62535;SDS011;63050;47.514;18.920;2023-07-31T20:23:54;3.30;;;1.10;;
62535;SDS011;63050;47.514;18.920;2023-07-31T20:28:55;3.40;;;1.60;;
62535;SDS011;63050;47.514;18.920;2023-07-31T20:33:57;4.00;;;1.40;;
62535;SDS011;63050;47.514;18.920;2023-07-31T20:38:58;4.20;;;1.40;;
62535;SDS011;63050;47.514;18.920;2023-07-31T20:44:00;2.30;;;1.40;;
62535;SDS011;63050;47.514;18.920;2023-07-31T20:49:02;4.20;;;1.80;;
62535;SDS011;63050;47.514;18.920;2023-07-31T20:54:03;4.30;;;1.50;;
62535;SDS011;63050;47.514;18.920;2023-07-31T20:59:05;4.10;;;1.60;;
62535;SDS011;63050;47.514;18.920;2023-07-31T21:04:06;5.30;;;2.10;;
62535;SDS011;63050;47.514;18.920;2023-07-31T21:09:07;3.90;;;1.50;;
62535;SDS011;63050;47.514;18.920;2023-07-31T21:14:08;3.40;;;1.50;;
62535;SDS011;63050;47.514;18.920;2023-07-31T21:19:09;3.50;;;1.50;;
62535;SDS011;63050;47.514;18.920;2023-07-31T21:24:10;2.90;;;1.60;;
62535;SDS011;63050;47.514;18.920;2023-07-31T21:29:10;3.50;;;1.70;;
62535;SDS011;63050;47.514;18.920;2023-07-31T21:34:12;4.10;;;1.70;;
62535;SDS011;63050;47.514;18.920;2023-07-31T21:39:13;2.90;;;1.50;;
62535;SDS011;63050;47.514;18.920;2023-07-31T21:44:14;3.50;;;1.60;;
62535;SDS011;63050;47.514;18.920;2023-07-31T21:49:15;2.90;;;1.70;;
62535;SDS011;63050;47.514;18.920;2023-07-31T21:54:16;2.80;;;1.70;;
62535;SDS011;63050;47.514;18.920;2023-07-31T21:59:17;3.40;;;1.50;;
62535;SDS011;63050;47.514;18.920;2023-07-31T22:04:18;4.80;;;1.60;;
62535;SDS011;63050;47.514;18.920;2023-07-31T22:09:18;3.00;;;1.80;;
62535;SDS011;63050;47.514;18.920;2023-07-31T22:14:19;3.90;;;1.50;;
62535;SDS011;63050;47.514;18.920;2023-07-31T22:19:20;2.90;;;1.60;;
62535;SDS011;63050;47.514;18.920;2023-07-31T22:24:21;2.60;;;1.50;;
62535;SDS011;63050;47.514;18.920;2023-07-31T22:29:22;3.80;;;1.40;;
62535;SDS011;63050;47.514;18.920;2023-07-31T22:34:23;2.30;;;1.40;;
62535;SDS011;63050;47.514;18.920;2023-07-31T22:39:23;2.50;;;1.30;;
62535;SDS011;63050;47.514;18.920;2023-07-31T22:44:24;2.40;;;1.30;;
62535;SDS011;63050;47.514;18.920;2023-07-31T22:49:25;2.70;;;1.80;;
62535;SDS011;63050;47.514;18.920;2023-07-31T22:54:26;2.90;;;1.70;;
62535;SDS011;63050;47.514;18.920;2023-07-31T22:59:27;4.40;;;1.60;;
62535;SDS011;63050;47.514;18.920;2023-07-31T23:04:28;3.10;;;1.70;;
62535;SDS011;63050;47.514;18.920;2023-07-31T23:09:29;3.60;;;1.60;;
62535;SDS011;63050;47.514;18.920;2023-07-31T23:14:29;3.90;;;1.80;;
62535;SDS011;63050;47.514;18.920;2023-07-31T23:19:31;3.80;;;1.60;;
62535;SDS011;63050;47.514;18.920;2023-07-31T23:24:32;3.90;;;1.50;;
62535;SDS011;63050;47.514;18.920;2023-07-31T23:29:33;2.60;;;1.50;;
62535;SDS011;63050;47.514;18.920;2023-07-31T23:34:36;3.80;;;1.60;;
62535;SDS011;63050;47.514;18.920;2023-07-31T23:39:37;3.20;;;1.80;;
62535;SDS011;63050;47.514;18.920;2023-07-31T23:44:38;8.10;;;1.90;;
62535;SDS011;63050;47.514;18.920;2023-07-31T23:49:39;5.20;;;1.70;;
62535;SDS011;63050;47.514;18.920;2023-07-31T23:54:40;3.40;;;1.70;;
62535;SDS011;63050;47.514;18.920;2023-07-31T23:59:40;3.80;;;1.60;;
